Time;durP1;ratioP1;P1;durP2;ratioP2;P2;SDS_P1;SDS_P2;PMS_P1;PMS_P2;Temp;Humidity;BMP_temperature;BMP_pressure;BME280_temperature;BME280_humidity;BME280_pressure;Samples;Min_cycle;Max_cycle;Signal;HPM_P1;HPM_P2
2023/08/02 00:02:11;;;;;;;8.60;3.50;;;14.70;99.90;;;;;;5034027;28;20085;-30
2023/08/02 00:04:37;;;;;;;7.15;3.38;;;14.60;99.90;;;;;;5034047;28;20089;-30
2023/08/02 00:07:04;;;;;;;6.72;2.80;;;14.60;99.90;;;;;;5034495;28;20041;-32
2023/08/02 00:09:29;;;;;;;4.07;2.60;;;14.90;99.90;;;;;;5033930;28;20060;-30
2023/08/02 00:11:56;;;;;;;7.38;3.15;;;15.00;99.90;;;;;;5033818;28;20041;-30
2023/08/02 00:14:21;;;;;;;6.90;2.97;;;14.60;99.90;;;;;;5032718;28;20056;-30
2023/08/02 00:16:47;;;;;;;5.82;3.08;;;14.90;99.90;;;;;;5032926;28;20041;-31
2023/08/02 00:19:13;;;;;;;6.78;3.53;;;14.80;99.90;;;;;;5033714;28;20364;-32
2023/08/02 00:21:39;;;;;;;9.57;3.40;;;14.80;99.90;;;;;;5034236;28;20045;-31
2023/08/02 00:24:04;;;;;;;6.85;3.15;;;14.90;99.90;;;;;;5032586;28;20142;-31
2023/08/02 00:26:30;;;;;;;7.93;2.58;;;14.90;99.90;;;;;;5033722;28;20052;-30
2023/08/02 00:28:56;;;;;;;8.57;3.22;;;14.90;99.90;;;;;;5016825;28;20483;-30
2023/08/02 00:31:22;;;;;;;7.32;2.95;;;14.80;99.90;;;;;;5032407;28;20049;-30
2023/08/02 00:33:47;;;;;;;8.77;3.13;;;14.60;99.90;;;;;;5033035;28;20046;-31
2023/08/02 00:36:13;;;;;;;15.57;4.35;;;14.90;99.90;;;;;;5032448;28;20045;-30
2023/08/02 00:38:38;;;;;;;9.35;4.00;;;14.60;99.90;;;;;;5033498;28;20046;-30
2023/08/02 00:41:05;;;;;;;8.80;3.63;;;14.90;99.90;;;;;;5016738;28;20046;-30
2023/08/02 00:43:38;;;;;;;7.82;3.28;;;14.50;99.90;;;;;;5033561;28;20124;-31
2023/08/02 00:46:04;;;;;;;;;;;14.50;99.90;;;;;;5032717;28;20047;-30
2023/08/02 00:48:30;;;;;;;8.20;3.88;;;15.00;99.90;;;;;;5033595;28;19921;-30
2023/08/02 00:50:56;;;;;;;6.05;3.92;;;14.60;99.90;;;;;;5019694;28;20046;-30
2023/08/02 00:53:21;;;;;;;4.93;3.60;;;14.50;99.90;;;;;;5037509;28;20045;-30
2023/08/02 00:55:49;;;;;;;9.15;5.22;;;14.50;99.90;;;;;;5020077;28;20053;-30
2023/08/02 00:58:14;;;;;;;11.60;5.03;;;14.90;99.90;;;;;;5037311;28;20080;-31
2023/08/02 01:00:40;;;;;;;21.42;5.85;;;14.60;99.90;;;;;;5036942;28;20499;-31
2023/08/02 01:03:06;;;;;;;9.88;5.30;;;14.60;99.90;;;;;;5037172;28;20352;-30
2023/08/02 01:05:42;;;;;;;13.73;4.82;;;14.90;99.90;;;;;;5038125;28;20048;-30
2023/08/02 01:08:13;;;;;;;12.38;5.07;;;15.00;99.90;;;;;;5037578;28;20049;-30
2023/08/02 01:11:02;;;;;;;7.40;4.38;;;14.60;99.90;;;;;;5036546;28;20190;-30
2023/08/02 01:13:30;;;;;;;11.73;5.00;;;15.00;99.90;;;;;;5036523;28;20053;-31
2023/08/02 01:15:58;;;;;;;10.00;5.40;;;15.10;99.90;;;;;;5037396;28;20053;-30
2023/08/02 01:18:24;;;;;;;11.73;5.00;;;15.00;99.90;;;;;;5035909;28;20093;-31
2023/08/02 01:20:49;;;;;;;16.85;5.63;;;14.60;99.90;;;;;;5036016;28;20089;-30
2023/08/02 01:23:15;;;;;;;14.10;6.32;;;14.90;99.90;;;;;;5036666;28;20057;-31
2023/08/02 01:25:44;;;;;;;8.32;4.95;;;14.70;99.90;;;;;;5003429;28;20046;-30
2023/08/02 01:28:16;;;;;;;8.63;5.68;;;15.00;99.90;;;;;;5036903;28;20045;-31
2023/08/02 01:30:44;;;;;;;12.63;5.95;;;14.80;99.90;;;;;;5035893;28;20080;-31
2023/08/02 01:33:10;;;;;;;8.43;6.13;;;15.00;99.90;;;;;;5036773;28;20041;-31
2023/08/02 01:35:36;;;;;;;11.32;6.60;;;14.70;99.90;;;;;;5036051;28;20103;-31
2023/08/02 01:38:02;;;;;;;11.80;6.78;;;14.70;99.90;;;;;;5037252;28;20132;-31
2023/08/02 01:40:28;;;;;;;14.93;7.85;;;14.90;99.90;;;;;;5036571;28;20133;-31
2023/08/02 01:42:53;;;;;;;15.90;6.55;;;15.00;99.90;;;;;;5035712;28;20049;-30
2023/08/02 01:45:19;;;;;;;13.57;6.30;;;14.80;99.90;;;;;;5036857;28;20045;-30
2023/08/02 01:47:45;;;;;;;13.35;6.30;;;15.00;99.90;;;;;;5036506;28;20400;-32
2023/08/02 01:50:11;;;;;;;10.98;6.82;;;15.00;99.90;;;;;;5036470;28;20073;-30
2023/08/02 01:52:36;;;;;;;16.33;7.50;;;14.60;99.90;;;;;;5036369;28;20387;-31
2023/08/02 01:55:02;;;;;;;14.27;7.03;;;14.60;99.90;;;;;;5036099;28;20124;-31
2023/08/02 01:57:28;;;;;;;11.88;6.25;;;14.60;99.90;;;;;;5036626;28;20054;-30
2023/08/02 01:59:53;;;;;;;15.85;6.40;;;14.60;99.90;;;;;;5036304;28;20506;-32
2023/08/02 02:02:19;;;;;;;11.00;6.95;;;14.50;99.90;;;;;;5034777;28;20086;-32
2023/08/02 02:04:45;;;;;;;14.73;7.40;;;14.90;99.90;;;;;;5035257;28;20088;-31
2023/08/02 02:07:11;;;;;;;13.88;7.32;;;14.90;99.90;;;;;;5036724;28;20061;-31
2023/08/02 02:09:36;;;;;;;13.98;7.47;;;14.50;99.90;;;;;;5034833;28;20045;-30
2023/08/02 02:12:02;;;;;;;14.43;8.18;;;14.80;99.90;;;;;;5036034;28;20042;-30
2023/08/02 02:14:28;;;;;;;16.25;8.75;;;14.50;99.90;;;;;;5036027;28;20054;-30
2023/08/02 02:16:54;;;;;;;20.60;8.90;;;14.90;99.90;;;;;;5035984;28;20099;-31
2023/08/02 02:19:19;;;;;;;17.15;9.85;;;14.50;99.90;;;;;;5036121;28;20041;-31
2023/08/02 02:21:45;;;;;;;13.25;8.93;;;14.40;99.90;;;;;;5036448;28;20602;-32
2023/08/02 02:24:10;;;;;;;18.85;8.18;;;14.50;99.90;;;;;;5034340;28;20400;-31
2023/08/02 02:26:37;;;;;;;13.48;8.07;;;14.70;99.90;;;;;;5035788;28;20045;-30
2023/08/02 02:29:02;;;;;;;15.65;9.23;;;14.40;99.90;;;;;;5036561;28;20076;-32
2023/08/02 02:31:28;;;;;;;19.05;8.65;;;14.90;99.90;;;;;;5035578;28;20046;-31
2023/08/02 02:33:54;;;;;;;22.17;9.55;;;14.80;99.90;;;;;;5035667;28;20129;-31
2023/08/02 02:36:19;;;;;;;19.55;8.95;;;14.80;99.90;;;;;;5035588;28;20387;-30
2023/08/02 02:38:45;;;;;;;13.60;9.02;;;14.40;99.90;;;;;;5036291;28;20077;-31
2023/08/02 02:41:11;;;;;;;19.40;8.73;;;14.80;99.90;;;;;;5035484;28;20445;-31
2023/08/02 02:43:36;;;;;;;17.02;9.32;;;14.60;99.90;;;;;;5035462;28;20053;-32
2023/08/02 02:46:02;;;;;;;18.92;10.02;;;14.80;99.90;;;;;;5035381;28;20049;-31
2023/08/02 02:48:28;;;;;;;17.42;9.20;;;14.50;99.90;;;;;;5035387;28;20099;-30
2023/08/02 02:50:54;;;;;;;21.75;9.55;;;14.40;99.90;;;;;;5035330;28;20053;-31
2023/08/02 02:53:20;;;;;;;20.95;8.65;;;14.40;99.90;;;;;;5035508;28;20056;-30
2023/08/02 02:55:46;;;;;;;20.10;9.52;;;14.40;99.90;;;;;;5034897;28;20061;-30
2023/08/02 02:58:12;;;;;;;19.40;8.20;;;14.70;99.90;;;;;;5035421;28;20056;-31
2023/08/02 03:00:38;;;;;;;19.60;8.70;;;14.80;99.90;;;;;;5035603;28;20124;-31
2023/08/02 03:03:03;;;;;;;20.08;8.10;;;14.50;99.90;;;;;;5033858;28;20056;-31
2023/08/02 03:05:29;;;;;;;13.52;8.02;;;14.40;99.90;;;;;;5035070;28;20132;-30
2023/08/02 03:07:55;;;;;;;13.02;8.35;;;14.80;99.90;;;;;;5034946;28;20450;-32
2023/08/02 03:10:20;;;;;;;15.30;8.07;;;14.60;99.90;;;;;;5034941;28;20045;-31
2023/08/02 03:12:46;;;;;;;17.33;8.02;;;14.40;99.90;;;;;;5034075;28;20084;-31
2023/08/02 03:15:12;;;;;;;14.95;8.63;;;14.70;99.90;;;;;;5034142;28;20050;-30
2023/08/02 03:17:38;;;;;;;16.33;7.70;;;14.70;99.90;;;;;;5033597;28;20487;-31
2023/08/02 03:20:04;;;;;;;15.35;7.72;;;14.70;99.90;;;;;;5033646;28;20053;-31
2023/08/02 03:22:30;;;;;;;23.95;7.50;;;14.80;99.90;;;;;;5034139;28;20103;-31
2023/08/02 03:24:56;;;;;;;18.25;7.45;;;14.80;99.90;;;;;;5034991;28;20446;-31
2023/08/02 03:27:21;;;;;;;16.67;6.40;;;14.80;99.90;;;;;;5034664;28;20391;-31
2023/08/02 03:29:47;;;;;;;20.58;7.30;;;14.40;99.90;;;;;;5034589;28;20042;-30
2023/08/02 03:32:13;;;;;;;15.30;6.55;;;14.40;99.90;;;;;;5034527;28;20045;-31
2023/08/02 03:34:39;;;;;;;15.95;7.00;;;14.40;99.90;;;;;;5034812;28;20046;-30
2023/08/02 03:37:05;;;;;;;15.35;7.00;;;14.40;99.90;;;;;;5034465;28;20486;-30
2023/08/02 03:39:30;;;;;;;17.45;7.07;;;14.80;99.90;;;;;;5034602;28;20373;-31
2023/08/02 03:41:56;;;;;;;18.25;6.43;;;14.70;99.90;;;;;;5034320;28;20107;-31
2023/08/02 03:44:22;;;;;;;21.52;6.80;;;14.70;99.90;;;;;;5033166;28;20124;-31
2023/08/02 03:46:48;;;;;;;15.30;6.38;;;14.40;99.90;;;;;;5034313;28;20543;-31
2023/08/02 03:49:13;;;;;;;18.33;8.60;;;14.60;99.90;;;;;;5017751;28;20049;-30
2023/08/02 03:51:39;;;;;;;17.85;6.30;;;14.50;99.90;;;;;;5034187;28;20049;-30
2023/08/02 03:54:05;;;;;;;19.60;6.82;;;14.50;99.90;;;;;;5034193;28;20451;-31
2023/08/02 03:56:31;;;;;;;24.85;7.55;;;14.40;99.90;;;;;;5034475;28;20104;-30
2023/08/02 03:58:56;;;;;;;18.30;6.95;;;14.40;99.90;;;;;;5032831;28;20045;-30
2023/08/02 04:01:22;;;;;;;24.02;8.15;;;14.70;99.90;;;;;;5033906;28;20112;-30
2023/08/02 04:03:48;;;;;;;20.10;7.20;;;14.60;99.90;;;;;;5034069;28;20041;-30
2023/08/02 04:06:13;;;;;;;19.20;6.90;;;14.70;99.90;;;;;;5034757;28;20052;-30
2023/08/02 04:08:39;;;;;;;24.77;8.43;;;14.40;99.90;;;;;;5034226;28;20484;-30
2023/08/02 04:11:06;;;;;;;17.85;8.68;;;14.50;99.90;;;;;;5034432;28;20103;-30
2023/08/02 04:13:32;;;;;;;23.98;7.90;;;14.30;99.90;;;;;;5033855;28;20084;-30
2023/08/02 04:15:59;;;;;;;25.45;9.00;;;14.70;99.90;;;;;;5032657;28;20053;-30
2023/08/02 04:18:25;;;;;;;22.02;7.88;;;14.50;99.90;;;;;;5034065;28;20056;-31
2023/08/02 04:20:50;;;;;;;23.85;8.60;;;14.50;99.90;;;;;;5032521;28;20476;-30
2023/08/02 04:23:16;;;;;;;26.15;8.50;;;14.50;99.90;;;;;;5033326;28;20076;-30
2023/08/02 04:25:42;;;;;;;23.10;8.65;;;14.50;99.90;;;;;;5033644;28;20053;-30
2023/08/02 04:28:07;;;;;;;25.25;7.93;;;14.50;99.90;;;;;;5033664;28;20045;-31
2023/08/02 04:30:33;;;;;;;24.70;8.60;;;14.80;99.90;;;;;;5032597;28;20041;-31
2023/08/02 04:32:59;;;;;;;21.85;8.73;;;14.80;99.90;;;;;;5033690;28;20122;-31
2023/08/02 04:35:24;;;;;;;23.08;8.40;;;14.70;99.90;;;;;;5033628;28;20053;-30
2023/08/02 04:37:50;;;;;;;26.50;8.73;;;14.50;99.90;;;;;;5033633;28;20046;-30
2023/08/02 04:40:16;;;;;;;22.13;9.30;;;14.60;99.90;;;;;;5032373;28;20534;-31
2023/08/02 04:42:41;;;;;;;20.40;10.35;;;14.60;99.90;;;;;;5015907;28;20045;-31
2023/08/02 04:45:08;;;;;;;26.30;8.38;;;14.70;99.90;;;;;;5033827;28;20133;-30
2023/08/02 04:47:34;;;;;;;24.17;8.50;;;14.60;99.90;;;;;;5033257;28;20488;-31
2023/08/02 04:50:00;;;;;;;23.13;9.32;;;14.80;99.90;;;;;;5032244;28;20048;-30
2023/08/02 04:52:26;;;;;;;25.50;9.25;;;14.80;99.90;;;;;;5033502;28;20060;-30
2023/08/02 04:54:52;;;;;;;25.52;9.43;;;14.80;99.90;;;;;;5033445;28;20050;-32
2023/08/02 04:57:18;;;;;;;27.40;9.93;;;14.70;99.90;;;;;;5033020;28;20060;-30
2023/08/02 04:59:43;;;;;;;21.55;8.85;;;14.70;99.90;;;;;;5033910;28;20129;-30
2023/08/02 05:02:09;;;;;;;28.73;9.75;;;14.80;99.90;;;;;;5033318;28;20048;-30
2023/08/02 05:04:35;;;;;;;25.45;8.65;;;14.80;99.90;;;;;;5034098;28;20054;-30
2023/08/02 05:07:00;;;;;;;23.15;7.85;;;14.70;99.90;;;;;;5033315;28;20381;-31
2023/08/02 05:09:26;;;;;;;20.40;8.13;;;14.70;99.90;;;;;;5033297;28;20051;-30
2023/08/02 05:11:52;;;;;;;21.50;9.02;;;14.70;99.90;;;;;;5016765;28;20048;-30
2023/08/02 05:14:18;;;;;;;21.23;8.95;;;14.80;99.90;;;;;;5034071;28;20041;-30
2023/08/02 05:16:44;;;;;;;25.10;8.23;;;14.80;99.90;;;;;;5033280;28;20096;-30
2023/08/02 05:19:10;;;;;;;18.10;8.00;;;14.90;99.90;;;;;;5033140;28;20041;-31
2023/08/02 05:21:36;;;;;;;25.90;8.68;;;14.80;99.90;;;;;;5033226;28;20049;-31
2023/08/02 05:24:01;;;;;;;15.88;7.68;;;14.90;99.90;;;;;;5033242;28;20542;-30
2023/08/02 05:26:27;;;;;;;18.60;7.22;;;14.90;99.90;;;;;;5033703;28;20461;-30
2023/08/02 05:28:53;;;;;;;19.05;8.23;;;14.90;99.90;;;;;;5031987;28;20132;-31
2023/08/02 05:31:18;;;;;;;18.70;8.10;;;14.90;99.90;;;;;;5032017;28;20045;-30
2023/08/02 05:33:44;;;;;;;28.30;9.05;;;14.90;99.90;;;;;;5032734;28;20041;-30
2023/08/02 05:36:14;;;;;;;15.88;8.23;;;14.90;99.90;;;;;;5034247;28;20470;-31
2023/08/02 05:38:41;;;;;;;20.17;8.23;;;15.00;99.90;;;;;;5036733;28;20049;-30
2023/08/02 05:41:07;;;;;;;24.40;8.27;;;15.00;99.90;;;;;;5036589;28;20099;-31
2023/08/02 05:43:32;;;;;;;15.35;8.15;;;15.10;99.90;;;;;;5036578;28;20045;-31
2023/08/02 05:45:58;;;;;;;18.50;7.68;;;15.20;99.90;;;;;;5036543;28;20053;-31
2023/08/02 05:48:24;;;;;;;16.13;8.45;;;15.30;99.90;;;;;;5036492;28;20042;-30
2023/08/02 05:50:50;;;;;;;22.17;8.07;;;15.50;99.90;;;;;;5036756;28;20108;-31
2023/08/02 05:53:16;;;;;;;13.10;7.80;;;15.60;99.90;;;;;;5036428;28;20479;-30
2023/08/02 05:55:42;;;;;;;17.20;7.70;;;15.60;99.90;;;;;;5036365;28;20103;-30
2023/08/02 05:58:07;;;;;;;19.15;8.02;;;15.60;99.90;;;;;;5036291;28;20057;-32
2023/08/02 06:00:33;;;;;;;14.68;7.07;;;15.70;99.90;;;;;;5036221;28;20045;-31
2023/08/02 06:02:59;;;;;;;18.80;8.07;;;15.70;99.90;;;;;;5036221;28;20387;-31
2023/08/02 06:05:24;;;;;;;17.63;7.88;;;15.70;99.90;;;;;;5036212;28;20479;-30
2023/08/02 06:07:51;;;;;;;23.17;8.20;;;15.70;99.90;;;;;;5036430;28;20077;-31
2023/08/02 06:10:17;;;;;;;17.00;7.47;;;15.70;99.90;;;;;;5036138;28;20095;-31
2023/08/02 06:12:43;;;;;;;20.25;7.88;;;16.00;99.90;;;;;;5036141;28;20049;-31
2023/08/02 06:15:09;;;;;;;18.95;8.15;;;16.50;99.90;;;;;;5036384;28;20491;-31
2023/08/02 06:17:35;;;;;;;21.75;8.63;;;16.60;99.90;;;;;;5036016;28;20056;-31
2023/08/02 06:20:01;;;;;;;17.92;7.40;;;16.80;99.90;;;;;;5035865;28;20388;-31
2023/08/02 06:22:26;;;;;;;18.63;7.47;;;17.00;99.90;;;;;;5035907;28;20057;-30
2023/08/02 06:24:52;;;;;;;17.15;7.65;;;17.00;99.90;;;;;;5035861;28;20053;-31
2023/08/02 06:27:18;;;;;;;14.45;7.80;;;16.70;99.90;;;;;;5036625;28;20103;-30
2023/08/02 06:29:43;;;;;;;12.30;7.30;;;16.50;99.90;;;;;;5035626;28;20544;-32
2023/08/02 06:32:09;;;;;;;16.80;7.78;;;16.40;99.90;;;;;;5035993;28;20052;-31
2023/08/02 06:34:35;;;;;;;16.67;7.95;;;16.30;99.90;;;;;;5034440;28;20050;-31
2023/08/02 06:37:01;;;;;;;15.68;8.45;;;16.30;99.90;;;;;;5018203;28;20084;-32
2023/08/02 06:39:26;;;;;;;19.95;8.55;;;16.30;99.90;;;;;;5035179;28;20458;-32
2023/08/02 06:41:52;;;;;;;21.17;8.98;;;16.30;99.90;;;;;;5034614;28;20132;-31
2023/08/02 06:44:18;;;;;;;19.85;9.05;;;16.30;99.90;;;;;;5035991;28;20103;-32
2023/08/02 06:46:44;;;;;;;17.23;8.45;;;16.40;99.90;;;;;;5034525;28;20056;-31
2023/08/02 06:49:09;;;;;;;13.52;7.68;;;16.40;99.90;;;;;;5034912;28;20052;-31
2023/08/02 06:51:35;;;;;;;13.98;7.65;;;16.40;99.90;;;;;;5035390;28;20060;-32
2023/08/02 06:54:01;;;;;;;15.43;7.65;;;16.30;99.90;;;;;;5035246;28;20053;-31
2023/08/02 06:56:26;;;;;;;21.10;8.60;;;16.40;99.90;;;;;;5035284;28;20064;-32
2023/08/02 06:58:52;;;;;;;18.58;8.95;;;16.40;99.90;;;;;;5035147;28;20049;-32
2023/08/02 07:01:20;;;;;;;14.13;8.40;;;16.40;99.90;;;;;;5035667;28;20045;-32
2023/08/02 07:03:47;;;;;;;18.25;10.18;;;16.40;99.90;;;;;;5035117;28;20045;-31
2023/08/02 07:06:16;;;;;;;14.40;9.43;;;16.50;99.90;;;;;;5035106;28;20128;-32
2023/08/02 07:08:42;;;;;;;21.92;9.55;;;16.50;99.90;;;;;;5035290;28;20049;-32
2023/08/02 07:11:09;;;;;;;17.00;9.48;;;16.50;99.90;;;;;;5034982;28;20048;-31
2023/08/02 07:13:37;;;;;;;19.70;10.02;;;16.60;99.90;;;;;;5033727;28;20057;-31
2023/08/02 07:16:04;;;;;;;19.83;9.35;;;16.60;99.90;;;;;;5034905;28;20041;-32
2023/08/02 07:18:30;;;;;;;13.77;8.55;;;16.60;99.90;;;;;;5034497;28;20503;-32
2023/08/02 07:20:55;;;;;;;13.10;8.85;;;16.60;99.90;;;;;;5034739;28;20049;-32
2023/08/02 07:23:22;;;;;;;16.00;8.38;;;16.70;99.90;;;;;;5034669;28;20480;-31
2023/08/02 07:25:48;;;;;;;16.20;7.88;;;16.70;99.90;;;;;;5033588;28;20551;-32
2023/08/02 07:28:14;;;;;;;13.45;7.55;;;16.70;99.90;;;;;;5034941;28;20132;-32
2023/08/02 07:30:39;;;;;;;14.55;7.30;;;16.70;99.90;;;;;;5033029;28;20045;-32
2023/08/02 07:33:05;;;;;;;15.88;7.05;;;16.60;99.90;;;;;;5034554;28;20052;-32
2023/08/02 07:35:36;;;;;;;13.35;6.07;;;16.60;99.90;;;;;;5035089;28;20096;-32
2023/08/02 07:38:02;;;;;;;13.73;7.13;;;16.50;99.90;;;;;;5033867;28;20045;-32
2023/08/02 07:40:28;;;;;;;12.65;5.90;;;16.50;99.90;;;;;;5034594;28;20102;-32
2023/08/02 07:42:54;;;;;;;14.63;6.68;;;16.40;99.90;;;;;;5033400;28;20461;-32
2023/08/02 07:45:20;;;;;;;14.98;6.35;;;16.40;99.90;;;;;;5034872;28;20049;-33
2023/08/02 07:47:45;;;;;;;14.68;6.15;;;16.40;99.90;;;;;;5034303;28;20049;-32
2023/08/02 07:50:11;;;;;;;12.05;5.78;;;16.40;99.90;;;;;;5033105;28;20498;-33
2023/08/02 07:52:37;;;;;;;15.77;6.07;;;16.40;99.90;;;;;;5034247;28;20085;-33
2023/08/02 07:55:03;;;;;;;12.85;5.38;;;16.40;99.90;;;;;;5033963;28;20077;-32
2023/08/02 07:57:31;;;;;;;11.38;4.68;;;16.50;99.90;;;;;;5034767;28;20518;-33
2023/08/02 07:59:58;;;;;;;11.27;5.80;;;16.50;99.90;;;;;;5032590;28;20057;-34
2023/08/02 08:02:25;;;;;;;16.33;5.38;;;16.40;99.90;;;;;;5034373;28;20446;-32
2023/08/02 08:04:52;;;;;;;9.43;4.90;;;16.40;99.90;;;;;;5033751;28;20388;-32
2023/08/02 08:07:17;;;;;;;13.07;5.85;;;16.40;99.90;;;;;;5034010;28;20041;-33
2023/08/02 08:09:43;;;;;;;11.55;5.38;;;16.30;99.90;;;;;;5034044;28;20124;-32
2023/08/02 08:12:09;;;;;;;11.07;5.10;;;16.30;99.90;;;;;;5034231;28;20045;-32
2023/08/02 08:14:35;;;;;;;14.00;5.55;;;16.30;99.90;;;;;;5033903;28;20056;-33
2023/08/02 08:17:01;;;;;;;14.30;5.93;;;16.10;99.90;;;;;;5034407;28;20045;-32
2023/08/02 08:19:28;;;;;;;12.32;5.25;;;16.00;99.90;;;;;;5033831;28;20053;-32
2023/08/02 08:21:54;;;;;;;13.68;5.03;;;15.90;99.90;;;;;;5034620;28;20096;-32
2023/08/02 08:24:20;;;;;;;10.32;4.75;;;15.70;99.90;;;;;;5034026;28;20053;-31
2023/08/02 08:26:46;;;;;;;11.20;4.60;;;15.60;99.90;;;;;;5033732;28;20384;-31
2023/08/02 08:29:12;;;;;;;10.30;5.13;;;15.50;99.90;;;;;;5016820;28;20052;-32
2023/08/02 08:31:38;;;;;;;12.63;5.15;;;15.40;99.90;;;;;;5033621;28;20049;-31
2023/08/02 08:34:04;;;;;;;13.93;5.35;;;15.30;99.90;;;;;;4999947;28;20143;-31
2023/08/02 08:36:30;;;;;;;11.85;4.75;;;15.30;99.90;;;;;;5033656;28;20096;-32
2023/08/02 08:38:56;;;;;;;14.88;5.60;;;15.20;99.90;;;;;;5047443;28;20124;-30
2023/08/02 08:41:22;;;;;;;16.92;5.85;;;15.00;99.90;;;;;;5056260;28;20056;-31
2023/08/02 08:43:55;;;;;;;13.55;5.97;;;15.20;99.90;;;;;;5047276;28;20042;-30
2023/08/02 08:46:22;;;;;;;;;;;15.20;99.90;;;;;;5042057;28;20103;-30
2023/08/02 08:48:47;;;;;;;13.82;5.25;;;15.20;99.90;;;;;;5033212;28;19921;-30
2023/08/02 08:51:15;;;;;;;12.05;5.50;;;14.90;99.90;;;;;;5033492;28;20041;-29
2023/08/02 08:53:44;;;;;;;12.65;4.93;;;14.90;99.90;;;;;;5015803;28;20046;-30
2023/08/02 08:56:11;;;;;;;13.23;4.90;;;14.80;99.90;;;;;;5031770;28;20063;-29
2023/08/02 08:58:38;;;;;;;18.75;6.15;;;15.20;99.90;;;;;;5035705;28;20049;-29
2023/08/02 09:01:05;;;;;;;16.90;5.72;;;14.70;99.90;;;;;;5053735;28;20128;-28
2023/08/02 09:03:32;;;;;;;16.85;5.90;;;15.20;99.90;;;;;;5053213;28;20049;-27
2023/08/02 09:06:03;;;;;;;19.33;7.10;;;14.90;99.90;;;;;;5053824;28;20053;-27
2023/08/02 09:08:29;;;;;;;18.20;6.43;;;14.40;99.90;;;;;;5048821;28;20048;-25
2023/08/02 09:10:55;;;;;;;15.38;6.68;;;15.50;99.90;;;;;;5041693;28;20494;-30
2023/08/02 09:13:25;;;;;;;15.10;6.30;;;15.50;99.90;;;;;;5057488;28;20056;-26
2023/08/02 09:16:11;;;;;;;14.52;6.65;;;14.60;99.90;;;;;;5045519;28;20041;-25
2023/08/02 09:18:42;;;;;;;15.30;6.60;;;15.50;99.90;;;;;;5035611;28;20128;-26
2023/08/02 09:21:11;;;;;;;13.15;6.32;;;15.80;99.90;;;;;;5035612;28;20046;-25
2023/08/02 09:23:37;;;;;;;16.30;6.15;;;14.10;99.90;;;;;;5036153;28;20042;-26
2023/08/02 09:26:19;;;;;;;12.98;5.80;;;14.00;99.90;;;;;;5036980;28;20045;-26
2023/08/02 09:29:00;;;;;;;14.77;5.85;;;14.70;99.90;;;;;;5020037;28;20099;-26
2023/08/02 09:31:28;;;;;;;15.98;6.65;;;14.60;99.90;;;;;;5036955;28;20057;-26
2023/08/02 09:33:55;;;;;;;11.13;5.90;;;15.60;99.90;;;;;;5036851;28;20045;-26
2023/08/02 09:36:30;;;;;;;15.40;6.95;;;15.90;99.90;;;;;;5036776;28;20045;-26
2023/08/02 09:39:25;;;;;;;16.05;6.63;;;16.30;99.90;;;;;;5035473;28;20049;-26
2023/08/02 09:41:51;;;;;;;16.13;6.45;;;14.60;99.90;;;;;;5028646;28;20080;-26
2023/08/02 09:44:21;;;;;;;17.80;7.32;;;14.60;99.90;;;;;;5036648;28;20479;-26
2023/08/02 09:46:46;;;;;;;12.90;7.32;;;14.60;99.90;;;;;;5036648;28;20056;-26
2023/08/02 09:49:20;;;;;;;16.52;8.40;;;15.80;99.90;;;;;;5036596;28;20132;-26
2023/08/02 09:51:46;;;;;;;20.45;8.70;;;15.00;99.90;;;;;;5036495;28;20136;-25
2023/08/02 09:54:13;;;;;;;15.98;8.57;;;14.90;99.90;;;;;;5036466;28;20085;-25
2023/08/02 09:56:41;;;;;;;19.00;9.40;;;14.90;99.90;;;;;;5036006;28;20057;-27
2023/08/02 09:59:08;;;;;;;18.27;8.25;;;16.60;99.90;;;;;;5035118;28;20057;-26
2023/08/02 10:01:35;;;;;;;15.88;8.35;;;16.50;99.90;;;;;;5036328;28;20054;-26
2023/08/02 10:04:09;;;;;;;17.08;8.07;;;15.10;99.90;;;;;;5036574;28;20050;-26
2023/08/02 10:06:40;;;;;;;15.98;8.98;;;15.20;99.90;;;;;;5036304;28;20075;-26
2023/08/02 10:09:08;;;;;;;14.85;7.93;;;15.40;99.90;;;;;;5038982;28;20079;-26
2023/08/02 10:12:00;;;;;;;18.00;8.55;;;14.80;99.90;;;;;;5037291;28;20050;-26
2023/08/02 10:14:27;;;;;;;16.77;9.65;;;16.30;99.90;;;;;;5030505;28;20118;-26
2023/08/02 10:16:53;;;;;;;16.45;7.93;;;14.70;99.90;;;;;;5036045;28;20557;-26
2023/08/02 10:19:20;;;;;;;15.35;8.27;;;14.70;99.90;;;;;;5034929;28;20508;-26
2023/08/02 10:21:47;;;;;;;19.45;9.30;;;16.10;99.90;;;;;;5042737;28;20506;-26
2023/08/02 10:24:13;;;;;;;18.25;9.02;;;15.10;99.90;;;;;;5056641;28;20044;-26
2023/08/02 10:26:40;;;;;;;17.05;8.82;;;16.20;99.90;;;;;;5055819;28;20056;-26
2023/08/02 10:29:07;;;;;;;17.70;9.35;;;14.90;99.90;;;;;;5055970;28;20068;-25
2023/08/02 10:31:33;;;;;;;18.42;10.20;;;16.30;99.90;;;;;;5054416;28;20056;-26
2023/08/02 10:33:59;;;;;;;17.48;10.80;;;15.00;99.90;;;;;;5055910;28;20045;-26
2023/08/02 10:36:25;;;;;;;16.17;9.90;;;15.00;99.90;;;;;;5049222;28;20115;-26
2023/08/02 10:38:55;;;;;;;12.15;8.85;;;16.70;99.90;;;;;;5055552;28;20051;-26
2023/08/02 10:41:25;;;;;;;13.85;9.77;;;15.20;99.90;;;;;;5054163;28;20094;-25
2023/08/02 10:43:54;;;;;;;19.08;10.57;;;16.90;99.90;;;;;;5052376;28;20041;-26
2023/08/02 10:46:25;;;;;;;13.07;9.45;;;16.60;99.90;;;;;;5055364;28;20087;-26
2023/08/02 10:48:51;;;;;;;12.95;8.98;;;15.40;99.90;;;;;;5054233;28;20053;-26
2023/08/02 10:51:34;;;;;;;15.60;8.75;;;15.40;99.90;;;;;;5055296;28;20128;-26
2023/08/02 10:54:21;;;;;;;13.52;8.00;;;15.40;99.90;;;;;;5052660;28;20049;-27
2023/08/02 10:56:56;;;;;;;16.30;7.90;;;16.90;99.90;;;;;;5033825;28;20049;-26
2023/08/02 10:59:24;;;;;;;12.77;8.02;;;16.80;99.90;;;;;;5035228;28;20041;-26
2023/08/02 11:02:00;;;;;;;10.07;7.03;;;15.40;99.90;;;;;;5034234;28;20046;-25
2023/08/02 11:04:27;;;;;;;9.95;6.47;;;15.30;99.90;;;;;;5033977;28;20111;-26
2023/08/02 11:06:53;;;;;;;7.10;6.03;;;17.00;99.90;;;;;;5035094;28;20136;-26
2023/08/02 11:09:39;;;;;;;8.95;6.32;;;17.10;99.90;;;;;;5035610;28;20073;-28
2023/08/02 11:12:13;;;;;;;8.05;4.82;;;17.20;99.90;;;;;;5034862;28;20459;-26
2023/08/02 11:14:39;;;;;;;7.60;4.68;;;15.50;99.90;;;;;;5047679;28;20522;-26
2023/08/02 11:17:05;;;;;;;5.30;4.20;;;17.00;99.90;;;;;;5055470;28;20382;-27
2023/08/02 11:19:31;;;;;;;6.22;4.10;;;15.80;99.90;;;;;;5037968;28;20094;-26
2023/08/02 11:21:59;;;;;;;6.30;3.55;;;15.50;99.90;;;;;;5036963;28;20098;-27
2023/08/02 11:24:26;;;;;;;3.80;2.92;;;17.10;99.90;;;;;;5053642;28;20049;-26
2023/08/02 11:26:59;;;;;;;5.00;3.20;;;16.90;99.90;;;;;;5054751;28;20052;-27
2023/08/02 11:29:25;;;;;;;4.82;2.80;;;17.00;99.90;;;;;;5054670;28;20037;-28
2023/08/02 11:31:53;;;;;;;3.53;2.90;;;17.00;99.90;;;;;;5054588;28;20439;-26
2023/08/02 11:34:20;;;;;;;3.88;2.63;;;16.20;99.90;;;;;;5053916;28;20080;-27
2023/08/02 11:36:49;;;;;;;4.10;2.60;;;15.60;99.90;;;;;;5054542;28;20087;-27
2023/08/02 11:39:17;;;;;;;3.35;2.45;;;15.50;99.90;;;;;;5054615;28;20498;-26
2023/08/02 11:41:43;;;;;;;6.18;2.67;;;15.60;99.90;;;;;;5054497;28;20071;-26
2023/08/02 11:44:15;;;;;;;5.00;2.75;;;17.00;99.90;;;;;;5053222;28;20037;-27
2023/08/02 11:46:41;;;;;;;5.28;3.05;;;15.70;99.90;;;;;;5054405;28;20044;-26
2023/08/02 11:49:07;;;;;;;4.10;2.80;;;16.00;99.90;;;;;;5037623;28;20041;-26
2023/08/02 11:51:38;;;;;;;3.40;2.28;;;15.50;99.90;;;;;;5053363;28;20534;-27
2023/08/02 11:54:04;;;;;;;3.47;2.58;;;15.70;99.90;;;;;;5036734;28;20052;-26
2023/08/02 11:56:30;;;;;;;2.33;1.92;;;15.90;99.90;;;;;;5054633;28;20053;-27
2023/08/02 11:58:56;;;;;;;2.47;1.90;;;16.40;99.90;;;;;;5054162;28;20052;-27
2023/08/02 12:01:22;;;;;;;3.20;2.42;;;17.20;99.90;;;;;;5054057;28;20098;-26
2023/08/02 12:04:00;;;;;;;2.47;1.92;;;17.10;99.90;;;;;;5053445;28;20363;-26
2023/08/02 12:06:28;;;;;;;5.43;2.78;;;17.30;99.90;;;;;;5053940;28;20080;-27
2023/08/02 12:08:56;;;;;;;2.78;1.98;;;18.30;99.90;;;;;;5054822;28;20044;-27
2023/08/02 12:11:23;;;;;;;3.33;1.55;;;19.00;99.90;;;;;;5053960;28;20068;-28
2023/08/02 12:13:49;;;;;;;3.22;1.15;;;19.20;99.90;;;;;;5053970;28;20059;-27
2023/08/02 12:16:16;;;;;;;2.42;0.95;;;18.50;99.90;;;;;;5052705;28;20045;-27
2023/08/02 12:18:58;;;;;;;1.35;1.15;;;18.20;99.90;;;;;;5053886;28;20044;-27
2023/08/02 12:21:25;;;;;;;1.43;1.00;;;18.20;99.90;;;;;;5052544;28;20530;-27
2023/08/02 12:23:52;;;;;;;1.45;1.05;;;18.90;99.90;;;;;;5054081;28;20271;-28
2023/08/02 12:26:28;;;;;;;1.42;0.90;;;19.00;99.90;;;;;;5053771;28;20049;-29
2023/08/02 12:28:54;;;;;;;2.92;0.98;;;18.70;99.90;;;;;;5053563;28;20098;-28
2023/08/02 12:31:20;;;;;;;1.92;1.35;;;18.50;99.90;;;;;;5036080;28;20424;-27
2023/08/02 12:33:46;;;;;;;1.20;1.10;;;18.50;99.90;;;;;;5053972;28;20136;-28
2023/08/02 12:36:24;;;;;;;1.23;1.13;;;18.40;99.90;;;;;;5052690;28;20481;-27
2023/08/02 12:38:50;;;;;;;2.55;0.90;;;18.50;99.90;;;;;;5052565;28;20047;-29